Airfield :
LOGIN :

Register | Disclaimer

   EN    FR    IT 

 










Legend :    VFR   Marginal VFR   IFR   Intensive IFR   Very Intensive IFR
Visi :
Ceiling :
>= 8 km
>= 3000ft
5 to 8 km
1000 to 3000 ft
1500m to 5 km
500 to 1000 ft
800 to 1500m
200 to 500 ft
< 800m
< 200 ft
Symbols :   Thunderstorms  Fog  Heavy snow  Heavy precipitations  Wind > 20 kt
SIGMETs :     Misc.  Thunderstorms  Icing  Turbulence  Mountain Waves  Volcanic Ashes







- Airport Elevation : 313 ft
- IATA code : LEH
- Download approach charts


LFOH - Le Havre Octeville

CURRENT METAR :
  • 190300Z AUTO 16004KT 130V190 3300 BR OVC002 06/06 Q1019

EXPIRED METARs :
  • 190230Z AUTO 16004KT 2800 BR OVC002 06/06 Q1019
  • 190200Z AUTO 16005KT 2900 BR OVC002 07/06 Q1019
  • 190130Z AUTO 16005KT 3500 BR OVC003 07/06 Q1019
  • 190100Z AUTO 15006KT 3300 BR OVC003 07/06 Q1019
  • 190030Z AUTO 15004KT 3000 -RADZ BR OVC004 07/06 Q1020

TAF TAF LFOH
Valid from the 18 at 12:00 until the 19 at 12:00 UTC


181100Z 1812/1912 14008KT 9999 BKN040
BECMG 1816/1818 OVC012
TEMPO 1818/1912 2000 DZRA OVC002
ATIS : +33 2 35 54 64 93
No reported NOTAMs for that airfield.



MET'MAP, your aeronautical weather chart ! - Copyright ORBIFLY December 2007 - Disclaimer

ORBIFLY MET'MAP TEAM :

Programming & Development : Alexandra Zaïnal
Concept & Development : Baudouin d'Aumeries
Co-Development & Prog : Marc-Olivier Méhu
Technical & hardware support : Manuel Goepfert

Contact : metmap@orbifly.com




SOURCES & CREDITS :

   NOAA